Hydrobase de l'Eau d'Heure

EBEH · Namur, Wallonia, 比利时

罗盘
风向 的 风向 320° Hydrobase de l'Eau d'Heure 8/26
风: 6 kt, 2 beaufort

3 kt

5 kt
改变
0 ft 1.000 2.000 3.000 4.000 5.000
Cloud Cloud Cloud Cloud
SCT 600
Cloud Cloud Cloud Cloud Cloud Cloud
BKN 700
METAR EBFS 211155Z 32006KT 6000 -SHRA SCT006 BKN007 15/15 Q1013 YLO YLO BECMG GRN

METAR Hydrobase de l'Eau d'Heure - EBEH

Hydrobase de l'Eau d'Heure是,比利时中的水上飞机基地。 该机场位于纬度50,18361和经度4,36972。 该机场有3条跑道: 8/26, 1/19 和 5/23. 本场的ICAO机场代码为EBEH。 机场在Bruxelles FIR中。

该航空气象观测是针对Florennes Air Base在2024年6月21日 13:55, 当地时间进行的。

机场观察

风向为320°,速度为6 kt。

可见度为6 km。

有疏云,零星散落的云朵在600 ft的高度 和 碎云在700 ft的高度。 破损或更高的上限为700 ft。

当前天气为光 阵雨 雨。 温度和风寒是15 °C。 露点为15 °C,相对湿度为100%。 海平面上的气压为1013 hPa (QNH)。

发展趋势

  • 变得

    可变方向的风很小或没有。

白天

今天,太阳从05:32升起,在21:56降落。 这适用于Hydrobase de l'Eau d'Heure,世界夏令时可能有所不同。 当地时间与世界标准时间之间的时差为+2 小时。 夏令时目前正在进行中。

公司介绍

我们没有关于这个机场的公司信息。

体会

到Vliegles.nl去找飞行课程,跳伞和其他飞行体验。 浏览页面,了解Hydrobase de l'Eau d'Heure附近所有可用的活动。 你也可以使用搜索功能来寻找你所在地附近的特定飞行课程、跳伞或其他飞行体验。

跑道

Id 标题 侧风 逆风 侧风 %
8/26 079°-259° 5 kt 3 kt 87 %
1/19 010°-190° 5 kt 4 kt 77 %
5/23 046°-226° 6 kt 100 %

逆风成分最大的方向会被突出显示,并用于横风计算。 这并不一定意味着这个方向在使用。

乌云

600 ft SCT 疏云,零星散落的云朵
700 ft BKN 碎云

温度 & 天气

天气 光 阵雨 雨
温度 15 °C
露点 15 °C
相对湿度 100%
Kp-index 0 (0-9)

白天

日出
05:30
中午
13:43
日落
21:55 (7:39)

小工具

你想在你的网站上有一个关于Hydrobase de l'Eau d'Heure的当前航空天气(METAR)的小部件吗?

显示HTML代码
报告变更